Time;durP1;ratioP1;P1;durP2;ratioP2;P2;SDS_P1;SDS_P2;PMS_P1;PMS_P2;Temp;Humidity;BMP_temperature;BMP_pressure;BME280_temperature;BME280_humidity;BME280_pressure;Samples;Min_cycle;Max_cycle;Signal;HPM_P1;HPM_P2
2022/05/02 00:01:37;;;;;;;5.03;3.60;;;22.40;57.00;;;;;;5063246;28;20045;-66
2022/05/02 00:04:04;;;;;;;4.72;3.20;;;22.20;57.00;;;;;;5055132;28;20047;-66
2022/05/02 00:06:30;;;;;;;3.60;3.05;;;22.20;56.90;;;;;;5069900;28;20044;-66
2022/05/02 00:08:56;;;;;;;4.00;3.13;;;22.30;57.00;;;;;;5073429;28;20045;-66
2022/05/02 00:11:22;;;;;;;4.97;3.90;;;22.30;57.00;;;;;;5076829;28;20041;-66
2022/05/02 00:13:48;;;;;;;7.28;4.63;;;22.20;56.90;;;;;;5076318;28;20072;-66
2022/05/02 00:16:14;;;;;;;6.72;3.78;;;22.30;57.00;;;;;;5067314;28;20048;-66
2022/05/02 00:18:40;;;;;;;5.35;3.70;;;22.20;57.00;;;;;;5061208;28;20047;-66
2022/05/02 00:21:06;;;;;;;5.43;3.83;;;22.30;56.90;;;;;;5065284;28;20049;-66
2022/05/02 00:23:32;;;;;;;8.20;3.72;;;22.20;56.90;;;;;;5056160;28;20045;-66
2022/05/02 00:25:59;;;;;;;7.55;4.25;;;22.10;57.00;;;;;;5074992;28;20105;-66
2022/05/02 00:28:25;;;;;;;9.10;4.07;;;22.20;57.00;;;;;;5076618;28;20040;-66
2022/05/02 00:30:51;;;;;;;9.88;4.65;;;22.20;57.10;;;;;;5074986;28;20037;-66
2022/05/02 00:33:20;;;;;;;6.50;4.22;;;22.20;57.20;;;;;;5075333;28;20036;-66
2022/05/02 00:35:46;;;;;;;7.97;4.82;;;22.20;57.30;;;;;;5066290;28;20041;-66
2022/05/02 00:38:13;;;;;;;9.70;4.45;;;22.10;57.30;;;;;;5056530;28;20045;-66
2022/05/02 00:40:39;;;;;;;9.77;5.40;;;22.10;57.40;;;;;;5058129;28;20061;-66
2022/05/02 00:43:05;;;;;;;5.97;4.15;;;22.10;57.50;;;;;;5057220;28;20068;-66
2022/05/02 00:45:37;;;;;;;6.70;4.25;;;22.10;57.50;;;;;;5066176;28;20072;-66
2022/05/02 00:48:03;;;;;;;8.20;4.73;;;22.00;57.50;;;;;;5073096;28;20602;-66
2022/05/02 00:50:37;;;;;;;7.35;4.65;;;22.00;57.50;;;;;;5074539;28;20037;-66
2022/05/02 00:53:05;;;;;;;6.90;4.40;;;22.10;57.70;;;;;;5071851;28;20051;-66
2022/05/02 00:55:32;;;;;;;9.18;4.90;;;22.00;57.60;;;;;;5062678;28;20037;-66
2022/05/02 00:58:00;;;;;;;7.63;4.53;;;22.00;57.70;;;;;;5068026;28;20041;-66
2022/05/02 01:00:28;;;;;;;10.93;4.60;;;22.00;57.70;;;;;;5078549;28;20044;-66
2022/05/02 01:02:54;;;;;;;8.30;4.97;;;22.00;57.70;;;;;;5079859;28;20025;-66
2022/05/02 01:05:21;;;;;;;12.90;5.13;;;21.90;57.90;;;;;;5069911;28;20043;-66
2022/05/02 01:07:48;;;;;;;8.30;5.68;;;21.90;58.10;;;;;;5079316;28;20033;-66
2022/05/02 01:10:17;;;;;;;11.93;5.60;;;22.00;58.10;;;;;;5076627;28;20037;-66
2022/05/02 01:12:48;;;;;;;10.23;5.70;;;21.90;58.10;;;;;;5059647;28;20037;-66
2022/05/02 01:15:16;;;;;;;7.80;5.47;;;21.90;58.10;;;;;;5059367;28;20100;-66
2022/05/02 01:17:43;;;;;;;6.38;4.90;;;22.00;58.10;;;;;;5077109;28;20049;-66
2022/05/02 01:20:14;;;;;;;11.18;5.03;;;21.90;58.10;;;;;;5071403;28;20048;-66
2022/05/02 01:22:42;;;;;;;7.28;4.93;;;22.00;58.10;;;;;;5070734;28;20119;-66
2022/05/02 01:25:09;;;;;;;8.10;5.20;;;21.90;58.10;;;;;;5066415;28;20112;-66
2022/05/02 01:27:35;;;;;;;8.52;4.85;;;21.90;58.20;;;;;;5080046;28;20037;-67
2022/05/02 01:30:01;;;;;;;11.73;4.60;;;22.10;58.20;;;;;;5078904;28;20056;-66
2022/05/02 01:32:28;;;;;;;7.47;4.38;;;22.00;58.20;;;;;;5077784;28;20040;-66
2022/05/02 01:34:55;;;;;;;9.68;5.57;;;22.10;58.20;;;;;;5071543;28;20041;-66
2022/05/02 01:37:21;;;;;;;9.75;4.88;;;22.00;58.10;;;;;;5059603;28;20041;-66
2022/05/02 01:39:47;;;;;;;9.05;5.30;;;22.20;58.20;;;;;;5068568;28;20041;-66
2022/05/02 01:42:13;;;;;;;8.98;5.15;;;22.10;58.20;;;;;;5077687;28;20045;-66
2022/05/02 01:44:40;;;;;;;6.75;5.00;;;22.20;58.20;;;;;;5079273;28;20036;-66
2022/05/02 01:47:08;;;;;;;8.10;4.85;;;22.20;58.10;;;;;;5062607;28;20083;-66
2022/05/02 01:49:34;;;;;;;10.02;5.13;;;22.20;58.10;;;;;;5074002;28;20036;-66
2022/05/02 01:52:00;;;;;;;9.55;5.50;;;22.20;58.10;;;;;;5059328;28;20065;-66
2022/05/02 01:54:26;;;;;;;7.68;4.80;;;22.20;58.10;;;;;;5060676;28;20051;-66
2022/05/02 01:56:53;;;;;;;9.27;5.72;;;22.40;58.20;;;;;;5059449;28;20061;-66
2022/05/02 01:59:19;;;;;;;10.77;5.30;;;22.30;58.20;;;;;;5075642;28;20075;-66
2022/05/02 02:01:45;;;;;;;7.18;4.95;;;22.10;58.10;;;;;;5075640;28;20065;-66
2022/05/02 02:06:56;;;;;;;7.47;5.03;;;22.20;58.10;;;;;;5059114;28;20037;-66
2022/05/02 02:09:22;;;;;;;6.50;5.03;;;22.30;58.20;;;;;;5060610;28;20060;-66
2022/05/02 02:11:49;;;;;;;7.15;4.60;;;22.20;58.10;;;;;;5078827;28;20051;-66
2022/05/02 02:14:16;;;;;;;10.35;5.72;;;22.20;58.10;;;;;;5074825;28;20037;-66
2022/05/02 02:16:42;;;;;;;10.32;4.85;;;22.20;58.10;;;;;;5063532;28;20038;-66
2022/05/02 02:19:08;;;;;;;8.90;5.38;;;22.10;58.10;;;;;;5061617;28;20100;-66
2022/05/02 02:21:34;;;;;;;12.82;4.97;;;22.30;58.30;;;;;;5078631;28;20047;-66
2022/05/02 02:24:03;;;;;;;10.15;5.63;;;22.10;58.10;;;;;;5078615;28;20045;-66
2022/05/02 02:26:29;;;;;;;7.00;4.80;;;22.20;58.00;;;;;;5061945;28;20037;-65
2022/05/02 02:28:55;;;;;;;8.68;4.57;;;22.00;58.10;;;;;;5058651;28;20037;-66
2022/05/02 02:31:21;;;;;;;6.68;4.95;;;22.10;58.20;;;;;;5066917;28;20048;-66
2022/05/02 02:33:47;;;;;;;8.52;5.22;;;22.00;58.30;;;;;;5073490;28;20045;-66
2022/05/02 02:36:13;;;;;;;6.78;4.45;;;22.00;58.30;;;;;;5058605;28;20045;-66
2022/05/02 02:38:39;;;;;;;10.07;5.13;;;22.00;58.30;;;;;;5058418;28;20136;-66
2022/05/02 02:41:05;;;;;;;7.72;5.35;;;22.10;58.30;;;;;;5072561;28;20052;-66
2022/05/02 02:43:31;;;;;;;5.22;4.72;;;22.10;58.30;;;;;;5076738;28;20045;-66
2022/05/02 02:45:58;;;;;;;7.00;4.90;;;22.10;58.40;;;;;;5070912;28;20071;-66
2022/05/02 02:48:23;;;;;;;8.38;5.95;;;22.00;58.30;;;;;;5072681;28;20109;-66
2022/05/02 02:50:50;;;;;;;8.30;5.55;;;22.20;58.40;;;;;;5074400;28;20037;-66
2022/05/02 02:53:15;;;;;;;10.77;5.82;;;22.10;58.30;;;;;;5078095;28;20028;-66
2022/05/02 02:55:42;;;;;;;7.78;5.68;;;22.20;58.30;;;;;;5070690;28;20132;-66
2022/05/02 02:58:09;;;;;;;6.38;4.72;;;22.10;58.30;;;;;;5078031;28;20039;-66
2022/05/02 03:00:35;;;;;;;9.63;5.13;;;22.20;58.20;;;;;;5075873;28;20097;-66
2022/05/02 03:03:01;;;;;;;7.75;5.25;;;22.10;58.20;;;;;;5074941;28;20029;-66
2022/05/02 03:08:13;;;;;;;10.80;5.70;;;22.10;58.20;;;;;;5078060;28;20070;-66
2022/05/02 03:10:39;;;;;;;9.70;5.28;;;22.10;58.20;;;;;;5069044;28;20025;-66
2022/05/02 03:13:05;;;;;;;7.25;4.97;;;22.00;58.20;;;;;;5076529;28;20033;-66
2022/05/02 03:15:33;;;;;;;8.38;5.30;;;22.00;58.20;;;;;;5073223;28;20045;-66
2022/05/02 03:18:00;;;;;;;9.55;5.93;;;22.00;58.20;;;;;;5077281;28;20048;-66
2022/05/02 03:20:26;;;;;;;11.57;5.60;;;21.90;58.40;;;;;;5058114;28;20042;-66
2022/05/02 03:22:52;;;;;;;12.18;6.50;;;22.00;58.40;;;;;;5057572;28;20049;-66
2022/05/02 03:25:18;;;;;;;12.35;5.38;;;22.00;58.40;;;;;;5073930;28;20089;-66
2022/05/02 03:27:44;;;;;;;12.73;6.25;;;22.00;58.40;;;;;;5055532;28;20029;-66
2022/05/02 03:30:10;;;;;;;12.10;5.97;;;21.90;58.40;;;;;;5055876;28;20048;-66
2022/05/02 03:32:36;;;;;;;16.80;6.00;;;22.10;58.40;;;;;;5076756;28;20052;-66
2022/05/02 03:35:03;;;;;;;14.82;5.93;;;22.00;58.30;;;;;;5057694;28;20064;-66
2022/05/02 03:37:29;;;;;;;9.70;5.00;;;22.10;58.30;;;;;;5068110;28;20040;-66
2022/05/02 03:39:55;;;;;;;7.55;5.38;;;22.10;58.30;;;;;;5073220;28;20041;-66
2022/05/02 03:42:21;;;;;;;7.72;5.10;;;22.00;58.00;;;;;;5075216;28;20060;-66
2022/05/02 03:44:47;;;;;;;7.85;6.03;;;22.10;57.80;;;;;;5076884;28;20057;-66
2022/05/02 03:47:13;;;;;;;8.40;5.50;;;22.10;57.80;;;;;;5075522;28;20033;-66
2022/05/02 03:49:40;;;;;;;8.88;5.32;;;22.30;57.80;;;;;;5067168;28;20060;-66
2022/05/02 03:52:06;;;;;;;9.00;5.97;;;22.10;57.80;;;;;;5075846;28;20093;-66
2022/05/02 03:54:32;;;;;;;10.43;5.57;;;22.20;57.70;;;;;;5074631;28;20071;-66
2022/05/02 03:56:58;;;;;;;8.23;5.50;;;22.20;57.70;;;;;;5060449;28;20053;-66
2022/05/02 03:59:24;;;;;;;15.25;5.95;;;22.10;57.80;;;;;;5056858;28;20109;-66
2022/05/02 04:01:51;;;;;;;12.93;5.03;;;22.10;58.00;;;;;;5081781;28;20033;-66
2022/05/02 04:04:18;;;;;;;13.52;5.15;;;22.10;58.10;;;;;;5062177;28;20052;-66
2022/05/02 04:06:44;;;;;;;7.47;5.53;;;22.00;58.10;;;;;;5055980;28;20037;-66
2022/05/02 04:09:10;;;;;;;13.07;5.43;;;22.10;58.20;;;;;;5059513;28;20117;-66
2022/05/02 04:11:36;;;;;;;16.55;5.75;;;22.00;58.00;;;;;;5066874;28;20057;-66
2022/05/02 04:14:03;;;;;;;14.85;5.60;;;22.10;58.20;;;;;;5074105;28;20064;-66
2022/05/02 04:16:29;;;;;;;11.40;5.03;;;22.00;58.10;;;;;;5061220;28;20048;-66
2022/05/02 04:18:55;;;;;;;7.55;4.18;;;22.30;58.40;;;;;;5062823;28;20113;-66
2022/05/02 04:21:21;;;;;;;9.00;5.15;;;22.30;58.20;;;;;;5062420;28;20056;-66
2022/05/02 04:23:47;;;;;;;12.40;5.47;;;22.30;57.90;;;;;;5070958;28;20037;-66
2022/05/02 04:26:13;;;;;;;9.30;4.95;;;22.20;57.60;;;;;;5063431;28;20041;-66
2022/05/02 04:28:39;;;;;;;8.00;5.25;;;22.40;57.70;;;;;;5060955;28;20033;-66
2022/05/02 04:31:05;;;;;;;8.32;5.10;;;22.20;57.50;;;;;;5071420;28;20071;-67
2022/05/02 04:33:31;;;;;;;14.55;6.15;;;22.30;57.60;;;;;;5066775;28;20072;-67
2022/05/02 04:35:57;;;;;;;5.00;3.20;;;22.20;57.50;;;;;;5072395;28;20040;-67
2022/05/02 04:38:26;;;;;;;5.68;3.67;;;22.20;53.20;;;;;;5072285;28;20041;-67
2022/05/02 04:40:52;;;;;;;5.00;2.45;;;22.30;51.20;;;;;;5067108;28;20068;-67
2022/05/02 04:43:18;;;;;;;4.10;3.13;;;22.40;50.90;;;;;;5073508;28;20046;-67
2022/05/02 04:45:45;;;;;;;9.98;3.50;;;22.50;53.20;;;;;;5075259;28;20037;-67
2022/05/02 04:48:11;;;;;;;4.40;3.67;;;22.50;48.80;;;;;;5055052;28;20041;-67
2022/05/02 04:50:37;;;;;;;4.88;3.38;;;22.60;50.10;;;;;;5075685;28;20036;-67
2022/05/02 04:53:03;;;;;;;6.38;4.13;;;22.70;50.30;;;;;;5072994;28;20033;-67
2022/05/02 04:55:30;;;;;;;5.75;4.82;;;22.80;50.90;;;;;;5073384;28;20037;-67
2022/05/02 04:57:56;;;;;;;21.05;7.78;;;22.90;49.10;;;;;;5075359;28;20037;-66
2022/05/02 05:00:22;;;;;;;15.63;7.18;;;22.90;48.60;;;;;;5075302;28;20043;-66
2022/05/02 05:02:48;;;;;;;15.35;9.27;;;22.90;55.60;;;;;;5072328;28;20038;-67
2022/05/02 05:05:16;;;;;;;18.20;8.02;;;23.00;50.40;;;;;;5074847;28;20047;-67
2022/05/02 05:07:43;;;;;;;10.48;6.63;;;23.10;48.80;;;;;;5075578;28;20104;-67
2022/05/02 05:10:09;;;;;;;16.60;7.13;;;23.10;53.40;;;;;;5075259;28;20101;-68
2022/05/02 05:13:08;;;;;;;11.93;6.35;;;23.00;56.10;;;;;;5083907;28;20062;-68
2022/05/02 05:18:55;;;;;;;9.98;6.72;;;23.10;59.50;;;;;;5070067;28;20045;-66
2022/05/02 05:21:45;;;;;;;20.13;6.88;;;22.90;61.00;;;;;;5061297;28;20067;-67
2022/05/02 05:24:24;;;;;;;9.05;5.25;;;22.90;59.40;;;;;;5074576;28;20079;-67
2022/05/02 05:27:22;;;;;;;15.85;5.97;;;22.80;59.20;;;;;;5074609;28;20118;-66
2022/05/02 05:30:00;;;;;;;10.43;5.03;;;22.90;59.40;;;;;;5050563;28;20049;-69
2022/05/02 05:32:45;;;;;;;12.90;4.95;;;23.00;59.60;;;;;;5064564;28;20064;-69
2022/05/02 05:35:23;;;;;;;11.40;4.53;;;23.00;58.40;;;;;;5055296;28;20045;-68
2022/05/02 05:37:58;;;;;;;8.65;4.90;;;23.00;57.30;;;;;;5071885;28;20101;-68
2022/05/02 05:40:32;;;;;;;6.25;3.92;;;23.10;56.70;;;;;;5074692;28;20064;-69
2022/05/02 05:43:42;;;;;;;7.55;4.43;;;23.20;56.00;;;;;;5077841;28;20045;-70
2022/05/02 05:46:36;;;;;;;10.93;5.38;;;23.20;55.30;;;;;;5064228;28;20041;-69
2022/05/02 05:49:12;;;;;;;11.38;4.80;;;23.20;54.90;;;;;;5073679;28;20071;-68
2022/05/02 05:51:51;;;;;;;12.18;5.20;;;23.30;54.60;;;;;;5074761;28;20104;-69
2022/05/02 05:54:42;;;;;;;9.80;4.78;;;23.30;54.30;;;;;;5073920;28;20045;-68
2022/05/02 05:57:32;;;;;;;10.60;5.50;;;23.30;54.20;;;;;;5071865;28;20037;-69
2022/05/02 06:00:09;;;;;;;9.02;4.90;;;23.50;54.10;;;;;;5076478;28;20041;-67
2022/05/02 06:03:13;;;;;;;11.13;5.32;;;23.30;51.30;;;;;;5075747;28;20068;-67
2022/05/02 06:05:45;;;;;;;8.98;4.35;;;23.40;46.10;;;;;;5029377;28;20029;-67
2022/05/02 06:08:17;;;;;;;6.38;4.05;;;23.20;49.50;;;;;;5072913;28;20052;-67
2022/05/02 06:10:45;;;;;;;7.93;4.50;;;23.30;51.00;;;;;;5077477;28;20064;-68
2022/05/02 06:13:15;;;;;;;11.30;4.85;;;23.20;48.20;;;;;;5078491;28;20048;-67
2022/05/02 06:18:35;;;;;;;4.65;3.45;;;23.20;47.50;;;;;;5075533;28;20053;-67
2022/05/02 06:21:06;;;;;;;7.40;3.10;;;23.20;53.60;;;;;;5078206;28;20044;-67
2022/05/02 06:23:37;;;;;;;7.15;3.42;;;23.40;50.40;;;;;;5077900;28;20049;-67
2022/05/02 06:26:07;;;;;;;3.60;2.80;;;23.30;50.00;;;;;;5077333;28;20021;-67
2022/05/02 06:28:44;;;;;;;8.52;3.60;;;23.40;51.40;;;;;;5076881;28;20037;-69
2022/05/02 06:31:17;;;;;;;6.53;3.17;;;23.30;51.60;;;;;;5077687;28;20129;-69
2022/05/02 06:33:48;;;;;;;9.27;3.58;;;23.30;49.70;;;;;;5076278;28;20102;-67
2022/05/02 06:36:42;;;;;;;5.57;2.70;;;23.40;53.20;;;;;;5073457;28;20048;-71
2022/05/02 06:39:20;;;;;;;;;;;23.40;50.30;;;;;;5077975;28;20051;-68
2022/05/02 06:42:10;;;;;;;3.05;2.75;;;23.30;50.70;;;;;;5075230;28;19912;-70
2022/05/02 06:44:42;;;;;;;3.92;2.95;;;23.30;53.20;;;;;;5074074;28;20049;-69
2022/05/02 06:47:42;;;;;;;10.65;3.83;;;23.30;52.40;;;;;;5074600;28;20116;-68
2022/05/02 06:50:11;;;;;;;5.47;3.15;;;23.40;46.10;;;;;;5077343;28;20041;-69
2022/05/02 06:53:02;;;;;;;4.43;2.70;;;23.40;52.20;;;;;;5076629;28;20074;-69
2022/05/02 06:55:41;;;;;;;7.20;3.22;;;23.30;53.70;;;;;;5062284;28;20047;-71
2022/05/02 06:58:23;;;;;;;4.25;3.17;;;23.40;54.70;;;;;;5077290;28;20037;-68
2022/05/02 07:01:05;;;;;;;5.77;3.27;;;23.30;53.90;;;;;;5074376;28;20048;-71
2022/05/02 07:03:57;;;;;;;4.55;2.88;;;23.30;54.00;;;;;;5077056;28;20049;-70
2022/05/02 07:07:03;;;;;;;7.45;3.63;;;23.30;54.70;;;;;;5069060;28;20103;-72
2022/05/02 07:09:52;;;;;;;6.40;2.80;;;23.40;54.10;;;;;;5052401;28;20025;-71
2022/05/02 07:12:26;;;;;;;5.72;3.45;;;23.40;56.70;;;;;;5076299;28;20041;-71
2022/05/02 07:15:21;;;;;;;6.78;4.03;;;23.50;60.00;;;;;;5074310;28;20049;-71
2022/05/02 07:17:56;;;;;;;9.68;4.28;;;23.50;64.10;;;;;;5067203;28;20056;-71
2022/05/02 07:20:37;;;;;;;5.82;3.47;;;23.60;59.30;;;;;;5069271;28;20065;-69
2022/05/02 07:23:37;;;;;;;4.45;3.97;;;23.60;60.00;;;;;;5072902;28;20041;-71
2022/05/02 07:26:07;;;;;;;3.80;3.20;;;23.80;57.80;;;;;;5078366;28;20068;-69
2022/05/02 07:28:42;;;;;;;8.48;2.88;;;23.80;56.60;;;;;;5074729;28;20036;-70
2022/05/02 07:31:09;;;;;;;6.75;3.30;;;23.70;54.40;;;;;;5058614;28;20064;-70
2022/05/02 07:33:38;;;;;;;7.22;3.05;;;23.80;55.90;;;;;;5068523;28;20037;-71
2022/05/02 07:36:06;;;;;;;4.63;2.65;;;23.80;55.60;;;;;;5064386;28;20075;-69
2022/05/02 07:38:34;;;;;;;4.60;2.78;;;23.90;55.70;;;;;;5067376;28;20043;-69
2022/05/02 07:41:22;;;;;;;5.82;3.00;;;23.70;55.00;;;;;;5066721;28;20037;-72
2022/05/02 07:43:51;;;;;;;2.95;1.75;;;23.80;51.10;;;;;;5063015;28;20056;-71
2022/05/02 07:46:27;;;;;;;5.20;2.35;;;23.80;54.80;;;;;;5062114;28;20056;-71
2022/05/02 07:48:58;;;;;;;6.88;2.53;;;23.80;54.60;;;;;;5063855;28;20037;-72
2022/05/02 07:51:47;;;;;;;3.33;2.17;;;23.80;54.40;;;;;;5111187;27;20125;-70
2022/05/02 07:54:18;;;;;;;2.85;1.88;;;23.80;54.60;;;;;;5102410;28;20082;-71
2022/05/02 07:56:50;;;;;;;2.15;1.60;;;23.80;55.40;;;;;;5111574;28;20040;-71
2022/05/02 07:59:18;;;;;;;2.20;1.80;;;23.80;55.20;;;;;;5112009;28;20059;-71
2022/05/02 08:01:45;;;;;;;3.08;2.42;;;23.80;55.00;;;;;;5102314;28;20090;-71
2022/05/02 08:04:13;;;;;;;1.70;1.60;;;23.70;54.50;;;;;;5110555;28;20052;-71
2022/05/02 08:07:09;;;;;;;1.83;1.48;;;23.70;54.40;;;;;;5103864;28;20029;-71
2022/05/02 08:09:53;;;;;;;3.80;1.73;;;23.70;53.70;;;;;;5107909;28;20040;-71
2022/05/02 08:12:29;;;;;;;3.70;1.70;;;23.60;53.60;;;;;;5105122;28;20059;-71
2022/05/02 08:15:11;;;;;;;5.32;2.55;;;23.70;54.30;;;;;;5106186;28;20055;-72
2022/05/02 08:17:43;;;;;;;2.25;1.70;;;23.60;54.20;;;;;;5100767;28;20040;-71
2022/05/02 08:20:28;;;;;;;3.72;1.85;;;23.60;53.40;;;;;;5113067;28;20062;-71
2022/05/02 08:30:01;;;;;;;2.08;1.65;;;23.60;53.60;;;;;;5126746;28;20195;-71
2022/05/02 08:32:40;;;;;;;2.10;1.10;;;23.60;53.60;;;;;;5098083;28;20045;-70
2022/05/02 08:35:18;;;;;;;2.20;1.73;;;23.60;53.00;;;;;;5099960;28;20056;-70
2022/05/02 08:38:02;;;;;;;2.78;2.13;;;23.60;53.50;;;;;;5103789;28;20044;-70
2022/05/02 08:40:28;;;;;;;2.47;1.83;;;23.60;53.60;;;;;;5104200;28;20043;-71
2022/05/02 08:43:32;;;;;;;1.50;1.30;;;23.60;53.80;;;;;;5112470;28;20104;-70
2022/05/02 08:46:05;;;;;;;2.08;1.60;;;23.60;51.40;;;;;;5103890;28;20055;-70
2022/05/02 08:52:25;;;;;;;2.45;1.70;;;23.50;50.90;;;;;;5108897;28;20055;-70
2022/05/02 08:55:22;;;;;;;1.83;1.42;;;23.60;46.30;;;;;;5092982;28;20117;-69
2022/05/02 08:58:08;;;;;;;1.55;1.35;;;23.50;44.90;;;;;;5109683;28;20040;-70
2022/05/02 09:00:52;;;;;;;3.17;1.77;;;23.40;44.70;;;;;;5088739;28;20040;-71
2022/05/02 09:03:51;;;;;;;3.30;1.88;;;23.40;44.30;;;;;;5111480;28;20040;-71
2022/05/02 09:06:35;;;;;;;5.47;2.00;;;23.40;45.60;;;;;;5078772;28;20048;-70
2022/05/02 09:09:38;;;;;;;4.97;2.10;;;23.50;47.20;;;;;;5100266;28;20068;-70
2022/05/02 09:13:02;;;;;;;10.68;2.40;;;23.60;48.80;;;;;;5078853;28;20048;-70
2022/05/02 09:15:57;;;;;;;3.03;1.77;;;23.80;48.00;;;;;;5053842;28;20091;-70
2022/05/02 09:18:47;;;;;;;3.47;2.08;;;23.70;52.00;;;;;;5058697;28;20038;-70
2022/05/02 09:21:48;;;;;;;7.63;2.65;;;23.90;46.30;;;;;;5090968;28;20104;-70
2022/05/02 09:24:33;;;;;;;5.22;1.83;;;23.80;44.90;;;;;;5056675;28;20116;-69
2022/05/02 09:27:29;;;;;;;2.42;1.95;;;23.60;46.70;;;;;;5077810;28;20052;-73
2022/05/02 09:30:20;;;;;;;4.10;2.17;;;23.80;46.00;;;;;;5088414;28;20044;-72
2022/05/02 09:32:48;;;;;;;2.17;1.98;;;23.80;45.80;;;;;;5084504;28;20108;-71
2022/05/02 09:35:30;;;;;;;3.05;1.90;;;23.80;45.30;;;;;;5109657;28;20044;-71
2022/05/02 09:37:58;;;;;;;2.03;1.65;;;23.70;44.20;;;;;;5083410;28;20489;-71
2022/05/02 09:40:35;;;;;;;3.97;1.60;;;23.60;43.30;;;;;;5078188;28;20045;-71
2022/05/02 09:49:33;;;;;;;3.28;1.90;;;23.70;43.20;;;;;;5097870;28;20054;-70
2022/05/02 09:49:37;;;;;;;6.07;2.20;;;23.60;43.10;;;;;;5095732;28;20045;-69
2022/05/02 09:52:14;;;;;;;2.58;1.80;;;23.50;42.80;;;;;;5084170;28;20044;-69
2022/05/02 09:58:30;;;;;;;2.65;1.58;;;23.50;43.60;;;;;;5097744;28;20085;-70
2022/05/02 10:01:13;;;;;;;2.45;2.00;;;23.50;43.20;;;;;;5085912;28;20029;-70
2022/05/02 10:03:41;;;;;;;3.75;1.92;;;23.50;42.90;;;;;;5080082;28;20052;-70
2022/05/02 10:06:16;;;;;;;2.53;1.83;;;23.50;43.20;;;;;;5096698;28;20104;-70
2022/05/02 10:08:50;;;;;;;3.63;2.30;;;23.40;42.50;;;;;;5096634;28;20036;-70
2022/05/02 10:11:54;;;;;;;3.72;2.13;;;23.40;42.90;;;;;;5097082;28;20051;-69
2022/05/02 10:15:09;;;;;;;4.72;1.92;;;23.40;42.10;;;;;;5081047;28;20032;-70
2022/05/02 10:17:41;;;;;;;4.70;1.95;;;23.30;42.60;;;;;;5068248;28;20063;-70
2022/05/02 10:20:18;;;;;;;5.82;2.17;;;23.40;50.00;;;;;;5077335;28;20044;-70
2022/05/02 10:22:58;;;;;;;3.65;2.25;;;23.40;51.80;;;;;;5077136;28;20045;-69
2022/05/02 10:25:36;;;;;;;2.40;1.85;;;23.60;52.60;;;;;;5076692;28;20128;-70
2022/05/02 10:28:33;;;;;;;3.25;1.85;;;23.60;52.80;;;;;;5077045;28;20044;-70
2022/05/02 10:31:13;;;;;;;5.03;2.08;;;23.50;53.40;;;;;;5080443;28;20063;-71
2022/05/02 10:33:49;;;;;;;4.78;2.33;;;23.70;53.80;;;;;;5078025;28;20068;-70
2022/05/02 10:36:18;;;;;;;3.15;1.90;;;23.80;54.30;;;;;;5077190;28;20041;-70
2022/05/02 10:38:54;;;;;;;2.22;1.85;;;24.30;52.50;;;;;;5079247;28;20036;-69
2022/05/02 10:41:27;;;;;;;4.38;2.22;;;24.70;51.40;;;;;;5089962;28;20033;-69
2022/05/02 10:44:04;;;;;;;;;;;24.80;50.80;;;;;;5096870;28;20044;-68
2022/05/02 10:46:31;;;;;;;5.95;1.90;;;24.70;50.70;;;;;;5076808;28;19909;-69
2022/05/02 10:49:12;;;;;;;2.00;1.65;;;24.80;50.90;;;;;;5076796;28;20045;-69
2022/05/02 10:51:46;;;;;;;3.50;2.08;;;24.70;51.10;;;;;;5077347;28;20053;-69
2022/05/02 10:54:26;;;;;;;2.85;1.90;;;24.60;51.60;;;;;;5096620;28;20048;-70
2022/05/02 10:57:04;;;;;;;2.65;1.88;;;24.50;51.90;;;;;;5096258;28;20058;-71
2022/05/02 10:59:38;;;;;;;3.70;1.95;;;24.60;51.80;;;;;;5092990;28;20040;-71
2022/05/02 11:02:18;;;;;;;5.20;1.85;;;24.50;51.80;;;;;;5085611;28;20043;-71
2022/05/02 11:05:06;;;;;;;4.32;2.08;;;24.50;52.00;;;;;;5099330;28;20068;-70
2022/05/02 11:08:09;;;;;;;2.05;1.60;;;24.30;51.20;;;;;;5099809;28;20035;-72
2022/05/02 11:10:56;;;;;;;3.15;1.90;;;24.30;51.80;;;;;;5093155;28;20041;-69
2022/05/02 11:13:44;;;;;;;3.42;1.60;;;24.40;52.60;;;;;;5085516;28;20088;-70
2022/05/02 11:16:19;;;;;;;2.75;2.42;;;24.30;52.60;;;;;;5079293;28;20036;-69
2022/05/02 11:22:17;;;;;;;3.45;1.98;;;24.20;52.40;;;;;;5084304;28;20032;-70
2022/05/02 11:25:08;;;;;;;2.88;1.58;;;24.10;52.60;;;;;;5080153;28;20036;-70
2022/05/02 11:27:58;;;;;;;2.13;1.55;;;24.20;52.60;;;;;;5075945;28;20044;-70
2022/05/02 11:30:47;;;;;;;3.25;2.08;;;24.10;52.50;;;;;;5083215;28;20072;-69
2022/05/02 11:33:37;;;;;;;2.72;1.55;;;24.10;52.30;;;;;;5070596;28;20040;-71
2022/05/02 11:36:09;;;;;;;2.85;1.70;;;24.10;52.20;;;;;;5074945;28;20037;-69
2022/05/02 11:39:07;;;;;;;3.72;2.03;;;24.10;52.40;;;;;;5076356;28;20044;-69
2022/05/02 11:41:44;;;;;;;7.45;2.22;;;24.00;50.80;;;;;;5108022;28;20086;-70
2022/05/02 11:44:13;;;;;;;5.82;2.05;;;24.10;52.30;;;;;;5077913;28;20041;-70
2022/05/02 11:47:02;;;;;;;8.23;2.25;;;24.00;52.30;;;;;;5074629;28;20060;-69
2022/05/02 11:49:51;;;;;;;1.83;1.63;;;24.00;52.60;;;;;;5074513;28;20056;-69
2022/05/02 11:52:31;;;;;;;3.88;1.80;;;24.10;52.80;;;;;;5079702;28;20056;-69
2022/05/02 11:55:00;;;;;;;2.78;1.60;;;24.10;52.80;;;;;;5095192;28;20116;-69
2022/05/02 11:57:38;;;;;;;2.17;1.90;;;24.00;52.80;;;;;;5087314;28;20032;-69
2022/05/02 12:00:15;;;;;;;1.95;1.63;;;24.00;52.80;;;;;;5079109;28;20063;-69
2022/05/02 12:02:48;;;;;;;2.55;1.70;;;24.00;50.80;;;;;;5092608;28;20079;-69
2022/05/02 12:05:37;;;;;;;2.58;1.90;;;24.00;52.70;;;;;;5096019;28;20062;-70
2022/05/02 12:08:06;;;;;;;2.08;1.80;;;23.90;52.80;;;;;;5095229;28;20065;-69
2022/05/02 12:10:38;;;;;;;2.20;1.67;;;24.00;51.00;;;;;;5095300;28;20044;-69
2022/05/02 12:13:12;;;;;;;7.28;2.10;;;23.80;51.80;;;;;;5094644;28;20036;-69
2022/05/02 12:15:57;;;;;;;3.95;2.03;;;23.90;49.50;;;;;;5095985;28;20126;-69
2022/05/02 12:18:37;;;;;;;1.02;0.98;;;23.80;52.90;;;;;;5095967;28;20055;-69
2022/05/02 12:21:05;;;;;;;3.70;1.55;;;23.80;53.00;;;;;;5095734;28;20040;-69
2022/05/02 12:23:34;;;;;;;2.17;1.60;;;23.80;53.20;;;;;;5094814;28;20036;-69
2022/05/02 12:26:04;;;;;;;2.50;1.70;;;23.90;53.30;;;;;;5095686;28;20108;-69
2022/05/02 12:28:48;;;;;;;3.35;1.73;;;24.00;53.40;;;;;;5095814;28;20045;-70
2022/05/02 12:31:17;;;;;;;3.55;1.98;;;23.80;53.30;;;;;;5083934;28;20109;-69
2022/05/02 12:33:48;;;;;;;3.33;1.67;;;23.80;53.40;;;;;;5075356;28;20061;-69
2022/05/02 12:36:18;;;;;;;3.00;2.35;;;23.70;53.40;;;;;;5075783;28;20037;-69
2022/05/02 12:39:00;;;;;;;13.02;2.17;;;23.80;50.60;;;;;;5079119;28;20041;-69
2022/05/02 12:41:29;;;;;;;4.38;1.63;;;23.80;51.00;;;;;;5079377;28;20039;-70
2022/05/02 12:44:06;;;;;;;3.78;1.48;;;23.80;53.30;;;;;;5079141;28;20108;-70
2022/05/02 12:46:39;;;;;;;2.67;1.67;;;23.80;53.40;;;;;;5079150;28;20109;-70
2022/05/02 12:49:10;;;;;;;2.23;1.87;;;23.80;53.50;;;;;;5079605;28;20040;-69
2022/05/02 12:51:38;;;;;;;3.72;2.15;;;23.70;53.50;;;;;;5078694;28;20053;-69
2022/05/02 12:54:14;;;;;;;3.47;1.77;;;23.70;53.50;;;;;;5084563;28;20071;-69
2022/05/02 13:02:51;;;;;;;4.88;2.10;;;23.70;53.70;;;;;;5098935;28;20048;-72
2022/05/02 13:05:21;;;;;;;3.25;1.85;;;23.70;54.10;;;;;;5086186;28;20040;-71
2022/05/02 13:07:55;;;;;;;2.55;2.15;;;23.70;58.20;;;;;;5078843;28;20056;-71
2022/05/02 13:10:27;;;;;;;3.33;2.00;;;23.60;58.60;;;;;;5078716;28;20072;-71
2022/05/02 13:13:04;;;;;;;4.28;2.15;;;23.70;61.60;;;;;;5078086;28;20086;-71
2022/05/02 13:15:38;;;;;;;2.60;1.77;;;23.80;62.50;;;;;;5078088;28;20036;-71
2022/05/02 13:18:10;;;;;;;5.97;2.15;;;23.70;60.90;;;;;;5085188;28;20047;-71
2022/05/02 13:20:36;;;;;;;2.20;2.03;;;23.70;57.30;;;;;;5092158;28;20044;-71
2022/05/02 13:23:07;;;;;;;7.68;1.88;;;23.90;57.90;;;;;;5088217;28;20116;-71
